Norwegian Spirit — C6TQ6 — position and weather

sailwx.info

Track history (hours):
 
Tides and Currents Weather Stations Pressure Air Temp Water Temp Dewpoint Dewpoint Depression Visibility Wind Speed Wind Dir Waves Ship Positions

Norwegian Spirit

Operator: Norwegian Cruise Line

Last reported at 2014-Jul-30 06:32 UTC. Time now 2014-Jul-30 09:12 UTC.
Position N 43°06' E 005°54'.

Type: Ship. MMSI: 311746000.

Date/timePositionNaut miles runAvg speedWind from/ knotsBaromVisibWave heightAir tempDewpointWater temp
2014-Jul-30 06:32N 43°06' E 005°54'6 6.2
2014-Jul-30 05:33N 43°02' E 005°59'1817.7
2014-Jul-30 04:33N 42°51' E 005°41'1717.1
2014-Jul-30 03:33N 42°41' E 005°21'1817.6
2014-Jul-30 02:31N 42°31' E 005°01'1717.2
2014-Jul-30 01:33N 42°22' E 004°42'1716.9
2014-Jul-30 00:33N 42°13' E 004°23'1817.6
2014-Jul-29 23:33N 42°03' E 004°03'1717.4
2014-Jul-29 22:33N 41°54' E 003°43'1119.9
2014-Jul-29 22:00N 41°48' E 003°30'613.0 270 / 151013.0 23.0
2014-Jul-29 21:33N 41°45' E 003°24'1717.5
2014-Jul-29 20:33N 41°36' E 003°04'1818.1
2014-Jul-29 19:33N 41°26' E 002°43'1817.9
2014-Jul-29 18:33N 41°16' E 002°23'10 0.6
2014-Jul-29 02:11N 41°18' E 002°11'6 9.7
2014-Jul-29 01:31N 41°16' E 002°19'1818.5
2014-Jul-29 00:33N 41°25' E 002°39'1817.5
2014-Jul-28 23:33N 41°34' E 002°59'2019.8
2014-Jul-28 22:33N 41°44' E 003°22'2821.9
2014-Jul-28 21:18N 41°60' E 003°53'5921.3
2014-Jul-28 18:33N 42°33' E 004°58'2120.9
2014-Jul-28 17:33N 42°44' E 005°22'2121.1
2014-Jul-28 16:32N 42°56' E 005°46'1211.7
2014-Jul-28 15:28N 43°07' E 005°55'0 0.4
2014-Jul-28 14:17N 43°07' E 005°56'0 0.0
2014-Jul-28 09:23N 43°07' E 005°56'0 0.0
2014-Jul-28 08:20N 43°07' E 005°56'0 0.0
2014-Jul-28 07:04N 43°07' E 005°56'0 0.3
2014-Jul-28 06:33N 43°07' E 005°56'7 7.5
2014-Jul-28 05:33N 43°02' E 006°03'1414.1
2014-Jul-28 04:33N 42°57' E 006°21'1515.2
2014-Jul-28 03:33N 42°59' E 006°42'1615.6
2014-Jul-28 02:33N 43°02' E 007°03'1515.4
2014-Jul-28 01:34N 43°03' E 007°24'1616.0
2014-Jul-28 00:34N 43°06' E 007°45'1615.9
2014-Jul-27 23:33N 43°08' E 008°07'1615.9
2014-Jul-27 22:34N 43°11' E 008°28'1615.7
2014-Jul-27 21:34N 43°14' E 008°49'1616.1
2014-Jul-27 20:34N 43°15' E 009°11'1717.3
2014-Jul-27 19:33N 43°17' E 009°35'1716.6
2014-Jul-27 18:34N 43°19' E 009°58'1717.2
2014-Jul-27 17:34N 43°31' E 010°15'3 2.8
2014-Jul-27 16:30N 43°33' E 010°18'0 0.0
2014-Jul-27 15:33N 43°33' E 010°18'0 0.0
2014-Jul-27 14:29N 43°33' E 010°18'0 0.0
2014-Jul-27 13:32N 43°33' E 010°18'0 0.0
2014-Jul-27 12:31N 43°33' E 010°18'0 0.0
2014-Jul-27 11:31N 43°33' E 010°18'0 0.0
2014-Jul-27 10:33N 43°33' E 010°18'0 0.0
2014-Jul-27 09:33N 43°33' E 010°18'0 0.0
2014-Jul-27 08:33N 43°33' E 010°18'0 0.0
2014-Jul-27 07:32N 43°33' E 010°18'0 0.0
2014-Jul-27 06:32N 43°33' E 010°18'0 0.2
2014-Jul-27 05:33N 43°33' E 010°18'7 6.7
2014-Jul-27 04:33N 43°27' E 010°13'1413.9
2014-Jul-27 03:33N 43°14' E 010°08'2014.1
2014-Jul-27 02:10N 42°55' E 010°02'2813.9
2014-Jul-27 00:07N 42°26' E 009°59'2411.8
2014-Jul-26 22:06N 42°06' E 010°16'96 4.6
2014-Jul-26 01:21N 41°23' E 012°11'1214.9
2014-Jul-26 00:33N 41°14' E 012°22'2015.0
2014-Jul-25 23:15N 40°59' E 012°38'1014.8
2014-Jul-25 22:33N 40°51' E 012°47'1414.5
2014-Jul-25 21:33N 40°46' E 013°05'1515.2
2014-Jul-25 20:33N 40°42' E 013°24'5 8.0
2014-Jul-25 20:00N 40°42' E 013°30'1125.4 050 / 91015.0 26.0
2014-Jul-25 19:33N 40°38' E 013°44'1514.7
2014-Jul-25 18:33N 40°39' E 014°03'1414.4
2014-Jul-25 17:33N 40°49' E 014°17'1 0.1
2014-Jul-25 05:10N 40°50' E 014°16'813.5
2014-Jul-25 04:33N 40°42' E 014°14'1716.6
2014-Jul-25 03:33N 40°25' E 014°12'50117.9
2014-Jul-23 23:33N 36°13' E 023°23'2221.6
2014-Jul-23 22:33N 36°28' E 023°41'2121.3
2014-Jul-23 21:33N 36°44' E 023°60'2121.0
2014-Jul-23 20:33N 36°57' E 024°20'2120.5
2014-Jul-23 19:33N 37°10' E 024°40'2120.8
2014-Jul-23 18:32N 37°22' E 025°01'1515.4
2014-Jul-23 17:33N 37°28' E 025°19'0 0.0
2014-Jul-23 16:31N 37°28' E 025°19'0 0.0
2014-Jul-23 15:33N 37°28' E 025°19'0 0.0
2014-Jul-23 14:33N 37°28' E 025°19'0 0.0
2014-Jul-23 13:33N 37°28' E 025°19'0 0.0
2014-Jul-23 12:32N 37°28' E 025°19'0 0.0
2014-Jul-23 11:32N 37°28' E 025°19'0 0.0
2014-Jul-23 10:31N 37°28' E 025°19'0 0.0
2014-Jul-23 09:31N 37°28' E 025°19'5 5.0
2014-Jul-23 08:33N 37°32' E 025°17'1817.5
2014-Jul-23 07:33N 37°50' E 025°16'1817.9
2014-Jul-23 06:33N 38°07' E 025°12'8919.8
2014-Jul-23 02:04N 39°34' E 025°38'1121.8
2014-Jul-23 01:34N 39°44' E 025°43'6615.8
2014-Jul-22 21:24N 40°27' E 026°48'18476.3
2014-Jul-22 19:00N 40°48' E 022°48'264158.7 040 / 201008.0 26.0
2014-Jul-22 17:20N 40°53' E 028°36'1620.8
2014-Jul-22 16:33N 40°57' E 028°57'98 5.9
2014-Jul-22 00:05N 40°28' E 026°53'4013.8
2014-Jul-21 21:11N 40°02' E 026°15'812.1
2014-Jul-21 20:32N 39°60' E 026°05'719.1
2014-Jul-21 20:09N 39°55' E 025°57'2020.5
2014-Jul-21 19:11N 39°38' E 025°45'3819.7
2014-Jul-21 17:15N 39°00' E 025°35'1 3.6
2014-Jul-21 17:00N 39°00' E 025°36'1828.1 330 / 151010.0 28.0
2014-Jul-21 16:21N 38°42' E 025°40'2020.5
2014-Jul-21 15:23N 38°22' E 025°43'3519.2
2014-Jul-21 13:32N 38°00' E 026°18'15 1.0
2014-Jul-20 23:14N 37°54' E 026°01'1214.5
2014-Jul-20 22:23N 37°51' E 025°46'411.4
2014-Jul-20 22:00N 37°48' E 025°42'918.3 350 / 301013.027.0 24.022.024.0
2014-Jul-20 21:30N 37°43' E 025°32'1415.3
2014-Jul-20 20:33N 37°33' E 025°19'1313.5
2014-Jul-20 19:33N 37°31' E 025°02'1615.2
2014-Jul-20 18:32N 37°32' E 024°43'610.9
2014-Jul-20 18:00N 37°30' E 024°36'1518.5 350 / 121012.0 26.0
2014-Jul-20 17:11N 37°29' E 024°17'11 9.4
2014-Jul-20 16:00N 37°36' E 024°06'1839.2 060 / 261011.0 30.0
2014-Jul-20 15:33N 37°39' E 023°44'1717.1
2014-Jul-20 14:33N 37°55' E 023°36'  
Track history (hours):
 
Tides and Currents Weather Stations Pressure Air Temp Water Temp Dewpoint Dewpoint Depression Visibility Wind Speed Wind Dir Waves Ship Positions

Norwegian Spirit

Operator: Norwegian Cruise Line

Last reported at 2014-Jul-30 06:32 UTC. Time now 2014-Jul-30 09:12 UTC.
Position N 43°06' E 005°54'.

Type: Ship. MMSI: 311746000.

Date/timePositionNaut miles runAvg speedWind from/ knotsBaromVisibWave heightAir tempDewpointWater temp
2014-Jul-30 06:32N 43°06' E 005°54'6 6.2
2014-Jul-30 05:33N 43°02' E 005°59'1817.7
2014-Jul-30 04:33N 42°51' E 005°41'1717.1
2014-Jul-30 03:33N 42°41' E 005°21'1817.6
2014-Jul-30 02:31N 42°31' E 005°01'1717.2
2014-Jul-30 01:33N 42°22' E 004°42'1716.9
2014-Jul-30 00:33N 42°13' E 004°23'1817.6
2014-Jul-29 23:33N 42°03' E 004°03'1717.4
2014-Jul-29 22:33N 41°54' E 003°43'1119.9
2014-Jul-29 22:00N 41°48' E 003°30'613.0 270 / 151013.0 23.0
2014-Jul-29 21:33N 41°45' E 003°24'1717.5
2014-Jul-29 20:33N 41°36' E 003°04'1818.1
2014-Jul-29 19:33N 41°26' E 002°43'1817.9
2014-Jul-29 18:33N 41°16' E 002°23'10 0.6
2014-Jul-29 02:11N 41°18' E 002°11'6 9.7
2014-Jul-29 01:31N 41°16' E 002°19'1818.5
2014-Jul-29 00:33N 41°25' E 002°39'1817.5
2014-Jul-28 23:33N 41°34' E 002°59'2019.8
2014-Jul-28 22:33N 41°44' E 003°22'2821.9
2014-Jul-28 21:18N 41°60' E 003°53'5921.3
2014-Jul-28 18:33N 42°33' E 004°58'2120.9
2014-Jul-28 17:33N 42°44' E 005°22'2121.1
2014-Jul-28 16:32N 42°56' E 005°46'1211.7
2014-Jul-28 15:28N 43°07' E 005°55'0 0.4
2014-Jul-28 14:17N 43°07' E 005°56'0 0.0
2014-Jul-28 09:23N 43°07' E 005°56'0 0.0
2014-Jul-28 08:20N 43°07' E 005°56'0 0.0
2014-Jul-28 07:04N 43°07' E 005°56'0 0.3
2014-Jul-28 06:33N 43°07' E 005°56'7 7.5
2014-Jul-28 05:33N 43°02' E 006°03'1414.1
2014-Jul-28 04:33N 42°57' E 006°21'1515.2
2014-Jul-28 03:33N 42°59' E 006°42'1615.6
2014-Jul-28 02:33N 43°02' E 007°03'1515.4
2014-Jul-28 01:34N 43°03' E 007°24'1616.0
2014-Jul-28 00:34N 43°06' E 007°45'1615.9
2014-Jul-27 23:33N 43°08' E 008°07'1615.9
2014-Jul-27 22:34N 43°11' E 008°28'1615.7
2014-Jul-27 21:34N 43°14' E 008°49'1616.1
2014-Jul-27 20:34N 43°15' E 009°11'1717.3
2014-Jul-27 19:33N 43°17' E 009°35'1716.6
2014-Jul-27 18:34N 43°19' E 009°58'1717.2
2014-Jul-27 17:34N 43°31' E 010°15'3 2.8
2014-Jul-27 16:30N 43°33' E 010°18'0 0.0
2014-Jul-27 15:33N 43°33' E 010°18'0 0.0
2014-Jul-27 14:29N 43°33' E 010°18'0 0.0
2014-Jul-27 13:32N 43°33' E 010°18'0 0.0
2014-Jul-27 12:31N 43°33' E 010°18'0 0.0
2014-Jul-27 11:31N 43°33' E 010°18'0 0.0
2014-Jul-27 10:33N 43°33' E 010°18'0 0.0
2014-Jul-27 09:33N 43°33' E 010°18'0 0.0
2014-Jul-27 08:33N 43°33' E 010°18'0 0.0
2014-Jul-27 07:32N 43°33' E 010°18'0 0.0
2014-Jul-27 06:32N 43°33' E 010°18'0 0.2
2014-Jul-27 05:33N 43°33' E 010°18'7 6.7
2014-Jul-27 04:33N 43°27' E 010°13'1413.9
2014-Jul-27 03:33N 43°14' E 010°08'2014.1
2014-Jul-27 02:10N 42°55' E 010°02'2813.9
2014-Jul-27 00:07N 42°26' E 009°59'2411.8
2014-Jul-26 22:06N 42°06' E 010°16'96 4.6
2014-Jul-26 01:21N 41°23' E 012°11'1214.9
2014-Jul-26 00:33N 41°14' E 012°22'2015.0
2014-Jul-25 23:15N 40°59' E 012°38'1014.8
2014-Jul-25 22:33N 40°51' E 012°47'1414.5
2014-Jul-25 21:33N 40°46' E 013°05'1515.2
2014-Jul-25 20:33N 40°42' E 013°24'5 8.0
2014-Jul-25 20:00N 40°42' E 013°30'1125.4 050 / 91015.0 26.0
2014-Jul-25 19:33N 40°38' E 013°44'1514.7
2014-Jul-25 18:33N 40°39' E 014°03'1414.4
2014-Jul-25 17:33N 40°49' E 014°17'1 0.1
2014-Jul-25 05:10N 40°50' E 014°16'813.5
2014-Jul-25 04:33N 40°42' E 014°14'1716.6
2014-Jul-25 03:33N 40°25' E 014°12'50117.9
2014-Jul-23 23:33N 36°13' E 023°23'2221.6
2014-Jul-23 22:33N 36°28' E 023°41'2121.3
2014-Jul-23 21:33N 36°44' E 023°60'2121.0
2014-Jul-23 20:33N 36°57' E 024°20'2120.5
2014-Jul-23 19:33N 37°10' E 024°40'2120.8
2014-Jul-23 18:32N 37°22' E 025°01'1515.4
2014-Jul-23 17:33N 37°28' E 025°19'0 0.0
2014-Jul-23 16:31N 37°28' E 025°19'0 0.0
2014-Jul-23 15:33N 37°28' E 025°19'0 0.0
2014-Jul-23 14:33N 37°28' E 025°19'0 0.0
2014-Jul-23 13:33N 37°28' E 025°19'0 0.0
2014-Jul-23 12:32N 37°28' E 025°19'0 0.0
2014-Jul-23 11:32N 37°28' E 025°19'0 0.0
2014-Jul-23 10:31N 37°28' E 025°19'0 0.0
2014-Jul-23 09:31N 37°28' E 025°19'5 5.0
2014-Jul-23 08:33N 37°32' E 025°17'1817.5
2014-Jul-23 07:33N 37°50' E 025°16'1817.9
2014-Jul-23 06:33N 38°07' E 025°12'8919.8
2014-Jul-23 02:04N 39°34' E 025°38'1121.8
2014-Jul-23 01:34N 39°44' E 025°43'6615.8
2014-Jul-22 21:24N 40°27' E 026°48'18476.3
2014-Jul-22 19:00N 40°48' E 022°48'264158.7 040 / 201008.0 26.0
2014-Jul-22 17:20N 40°53' E 028°36'1620.8
2014-Jul-22 16:33N 40°57' E 028°57'98 5.9
2014-Jul-22 00:05N 40°28' E 026°53'4013.8
2014-Jul-21 21:11N 40°02' E 026°15'812.1
2014-Jul-21 20:32N 39°60' E 026°05'719.1
2014-Jul-21 20:09N 39°55' E 025°57'2020.5
2014-Jul-21 19:11N 39°38' E 025°45'3819.7
2014-Jul-21 17:15N 39°00' E 025°35'1 3.6
2014-Jul-21 17:00N 39°00' E 025°36'1828.1 330 / 151010.0 28.0
2014-Jul-21 16:21N 38°42' E 025°40'2020.5
2014-Jul-21 15:23N 38°22' E 025°43'3519.2
2014-Jul-21 13:32N 38°00' E 026°18'15 1.0
2014-Jul-20 23:14N 37°54' E 026°01'1214.5
2014-Jul-20 22:23N 37°51' E 025°46'411.4
2014-Jul-20 22:00N 37°48' E 025°42'918.3 350 / 301013.027.0 24.022.024.0
2014-Jul-20 21:30N 37°43' E 025°32'1415.3
2014-Jul-20 20:33N 37°33' E 025°19'1313.5
2014-Jul-20 19:33N 37°31' E 025°02'1615.2
2014-Jul-20 18:32N 37°32' E 024°43'610.9
2014-Jul-20 18:00N 37°30' E 024°36'1518.5 350 / 121012.0 26.0
2014-Jul-20 17:11N 37°29' E 024°17'11 9.4
2014-Jul-20 16:00N 37°36' E 024°06'1839.2 060 / 261011.0 30.0
2014-Jul-20 15:33N 37°39' E 023°44'1717.1
2014-Jul-20 14:33N 37°55' E 023°36'  

Dump ship's entire track history